Private Wetterstation Sandau
Wetterdaten: Montag, 03.09.2012
Datum Zeit Temp. A. Feuchte A. Luftdruck Regen Wind Richtung Richtung Taupunkt Windchill
03.09.2012 00:01 14,5 C 77 % 1024,9 hPa 0,0 l/m 0,0 km/h (0 Bft) S 180 10,5 C 14,5 C
03.09.2012 00:06 14,4 C 77 % 1024,8 hPa 0,0 l/m 0,0 km/h (0 Bft) S 180 10,4 C 14,4 C
03.09.2012 00:11 14,4 C 77 % 1024,9 hPa 0,0 l/m 0,0 km/h (0 Bft) S 180 10,4 C 14,4 C
03.09.2012 00:16 14,4 C 78 % 1024,9 hPa 0,0 l/m 0,0 km/h (0 Bft) S 180 10,6 C 14,4 C
03.09.2012 00:21 14,4 C 78 % 1024,8 hPa 0,0 l/m 0,0 km/h (0 Bft) S 180 10,6 C 14,4 C
03.09.2012 00:26 14,3 C 78 % 1024,7 hPa 0,0 l/m 0,0 km/h (0 Bft) S 180 10,5 C 14,3 C
03.09.2012 00:31 14,2 C 78 % 1024,9 hPa 0,0 l/m 0,0 km/h (0 Bft) S 180 10,4 C 14,2 C
03.09.2012 00:36 14,1 C 78 % 1024,7 hPa 0,0 l/m 0,0 km/h (0 Bft) S 180 10,3 C 14,1 C
03.09.2012 00:41 13,9 C 78 % 1024,8 hPa 0,0 l/m 0,0 km/h (0 Bft) S 180 10,1 C 13,9 C
03.09.2012 00:46 13,8 C 78 % 1024,7 hPa 0,0 l/m 0,0 km/h (0 Bft) S 180 10,0 C 13,8 C
03.09.2012 00:51 13,8 C 78 % 1024,8 hPa 0,0 l/m 0,0 km/h (0 Bft) S 180 10,0 C 13,8 C
03.09.2012 00:56 13,6 C 79 % 1024,8 hPa 0,0 l/m 0,0 km/h (0 Bft) S 180 10,0 C 13,6 C
03.09.2012 01:01 13,7 C 80 % 1024,8 hPa 0,0 l/m 0,0 km/h (0 Bft) S 180 10,3 C 13,7 C
03.09.2012 01:06 13,7 C 80 % 1024,9 hPa 0,0 l/m 0,0 km/h (0 Bft) S 180 10,3 C 13,7 C
03.09.2012 01:11 13,7 C 80 % 1024,8 hPa 0,0 l/m 0,0 km/h (0 Bft) S 180 10,3 C 13,7 C
03.09.2012 01:16 13,6 C 80 % 1024,6 hPa 0,0 l/m 0,0 km/h (0 Bft) S 180 10,2 C 13,6 C
03.09.2012 01:21 13,6 C 80 % 1024,8 hPa 0,0 l/m 0,0 km/h (0 Bft) S 180 10,2 C 13,6 C
03.09.2012 01:26 13,5 C 80 % 1024,9 hPa 0,0 l/m 0,0 km/h (0 Bft) S 180 10,1 C 13,5 C
03.09.2012 01:31 13,5 C 80 % 1025,0 hPa 0,0 l/m 0,0 km/h (0 Bft) S 180 10,1 C 13,5 C
03.09.2012 01:36 13,4 C 80 % 1025,0 hPa 0,0 l/m 0,0 km/h (0 Bft) S 180 10,0 C 13,4 C
03.09.2012 01:41 13,3 C 80 % 1025,0 hPa 0,0 l/m 0,0 km/h (0 Bft) S 180 9,9 C 13,3 C
03.09.2012 01:46 13,3 C 80 % 1024,6 hPa 0,0 l/m 0,0 km/h (0 Bft) S 180 9,9 C 13,3 C
03.09.2012 01:51 13,3 C 81 % 1024,8 hPa 0,0 l/m 0,0 km/h (0 Bft) S 180 10,1 C 13,3 C
03.09.2012 01:56 13,2 C 81 % 1024,8 hPa 0,0 l/m 0,0 km/h (0 Bft) S 180 10,0 C 13,2 C
03.09.2012 02:01 13,2 C 81 % 1024,8 hPa 0,0 l/m 0,0 km/h (0 Bft) S 180 10,0 C 13,2 C
03.09.2012 02:06 13,1 C 81 % 1024,8 hPa 0,0 l/m 0,0 km/h (0 Bft) S 180 9,9 C 13,1 C
03.09.2012 02:11 13,1 C 82 % 1024,7 hPa 0,0 l/m 0,0 km/h (0 Bft) S 180 10,1 C 13,1 C
03.09.2012 02:16 13,2 C 82 % 1024,8 hPa 0,0 l/m 0,0 km/h (0 Bft) S 180 10,2 C 13,2 C
03.09.2012 02:21 13,2 C 82 % 1024,6 hPa 0,0 l/m 0,0 km/h (0 Bft) S 180 10,2 C 13,2 C
03.09.2012 02:26 13,2 C 83 % 1024,6 hPa 0,0 l/m 0,0 km/h (0 Bft) S 180 10,4 C 13,2 C
03.09.2012 02:31 13,2 C 83 % 1024,6 hPa 0,0 l/m 0,0 km/h (0 Bft) S 180 10,4 C 13,2 C
03.09.2012 02:36 13,1 C 82 % 1024,6 hPa 0,0 l/m 0,0 km/h (0 Bft) S 180 10,1 C 13,1 C
03.09.2012 02:41 13,1 C 82 % 1024,6 hPa 0,0 l/m 0,0 km/h (0 Bft) S 180 10,1 C 13,1 C
03.09.2012 02:46 13,1 C 83 % 1024,7 hPa 0,0 l/m 0,0 km/h (0 Bft) S 180 10,3 C 13,1 C
03.09.2012 02:51 13,1 C 83 % 1024,7 hPa 0,0 l/m 0,0 km/h (0 Bft) S 180 10,3 C 13,1 C
03.09.2012 02:56 13,2 C 83 % 1024,6 hPa 0,0 l/m 0,0 km/h (0 Bft) S 180 10,4 C 13,2 C
03.09.2012 03:01 13,2 C 83 % 1024,5 hPa 0,0 l/m 0,0 km/h (0 Bft) S 180 10,4 C 13,2 C
03.09.2012 03:06 13,3 C 83 % 1024,4 hPa 0,0 l/m 0,0 km/h (0 Bft) S 180 10,5 C 13,3 C
03.09.2012 03:11 13,3 C 83 % 1024,5 hPa 0,0 l/m 0,0 km/h (0 Bft) S 180 10,5 C 13,3 C
03.09.2012 03:16 13,3 C 83 % 1024,3 hPa 0,0 l/m 0,0 km/h (0 Bft) S 180 10,5 C 13,3 C
03.09.2012 03:21 13,3 C 83 % 1024,3 hPa 0,0 l/m 0,0 km/h (0 Bft) S 180 10,5 C 13,3 C
03.09.2012 03:26 13,3 C 83 % 1024,1 hPa 0,0 l/m 2,2 km/h (1 Bft) S 180 10,5 C 13,3 C
03.09.2012 03:51 13,1 C 83 % 1024,1 hPa 0,0 l/m 0,0 km/h (0 Bft) S 180 10,3 C 13,1 C
03.09.2012 03:56 13,0 C 83 % 1024,1 hPa 0,0 l/m 0,0 km/h (0 Bft) S 180 10,2 C 13,0 C
03.09.2012 04:01 12,9 C 82 % 1024,2 hPa 0,0 l/m 0,0 km/h (0 Bft) S 180 9,9 C 12,9 C
03.09.2012 04:06 12,8 C 83 % 1024,1 hPa 0,0 l/m 1,8 km/h (1 Bft) S 180 10,0 C 12,8 C
03.09.2012 04:11 12,8 C 83 % 1024,1 hPa 0,0 l/m 0,0 km/h (0 Bft) S 180 10,0 C 12,8 C
03.09.2012 04:16 12,5 C 83 % 1024,0 hPa 0,0 l/m 0,0 km/h (0 Bft) S 180 9,7 C 12,5 C
03.09.2012 04:21 12,4 C 84 % 1024,0 hPa 0,0 l/m 0,0 km/h (0 Bft) S 180 9,8 C 12,4 C
03.09.2012 04:26 12,3 C 84 % 1024,2 hPa 0,0 l/m 0,0 km/h (0 Bft) S 180 9,7 C 12,3 C
03.09.2012 04:31 12,2 C 84 % 1024,2 hPa 0,0 l/m 0,0 km/h (0 Bft) S 180 9,6 C 12,2 C
03.09.2012 04:36 12,1 C 84 % 1024,2 hPa 0,0 l/m 1,1 km/h (1 Bft) S 180 9,5 C 12,1 C
03.09.2012 04:41 12,1 C 84 % 1024,2 hPa 0,0 l/m 0,0 km/h (0 Bft) S 180 9,5 C 12,1 C
03.09.2012 04:46 11,9 C 84 % 1024,3 hPa 0,0 l/m 0,0 km/h (0 Bft) S 180 9,3 C 11,9 C
03.09.2012 04:51 11,9 C 84 % 1024,2 hPa 0,0 l/m 0,0 km/h (0 Bft) S 180 9,3 C 11,9 C
03.09.2012 04:56 11,8 C 84 % 1024,2 hPa 0,0 l/m 0,0 km/h (0 Bft) S 180 9,2 C 11,8 C
03.09.2012 05:01 11,6 C 84 % 1024,2 hPa 0,0 l/m 0,0 km/h (0 Bft) S 180 9,0 C 11,6 C
03.09.2012 05:06 11,6 C 84 % 1024,2 hPa 0,0 l/m 0,0 km/h (0 Bft) S 180 9,0 C 11,6 C
03.09.2012 05:11 11,6 C 85 % 1024,0 hPa 0,0 l/m 0,0 km/h (0 Bft) S 180 9,2 C 11,6 C
03.09.2012 05:16 11,6 C 85 % 1024,0 hPa 0,0 l/m 0,0 km/h (0 Bft) S 180 9,2 C 11,6 C
03.09.2012 05:21 11,5 C 85 % 1024,0 hPa 0,0 l/m 0,0 km/h (0 Bft) S 180 9,1 C 11,5 C
03.09.2012 05:26 11,4 C 85 % 1024,1 hPa 0,0 l/m 0,0 km/h (0 Bft) S 180 9,0 C 11,4 C
03.09.2012 05:31 11,4 C 85 % 1024,1 hPa 0,0 l/m 0,0 km/h (0 Bft) S 180 9,0 C 11,4 C
03.09.2012 05:36 11,5 C 86 % 1024,1 hPa 0,0 l/m 0,0 km/h (0 Bft) S 180 9,2 C 11,5 C
03.09.2012 05:41 11,4 C 86 % 1024,2 hPa 0,0 l/m 0,0 km/h (0 Bft) S 180 9,1 C 11,4 C
03.09.2012 05:46 11,4 C 86 % 1024,2 hPa 0,0 l/m 0,0 km/h (0 Bft) S 180 9,1 C 11,4 C
03.09.2012 05:51 11,4 C 86 % 1024,3 hPa 0,0 l/m 0,0 km/h (0 Bft) S 180 9,1 C 11,4 C
03.09.2012 05:56 11,5 C 86 % 1024,2 hPa 0,0 l/m 0,0 km/h (0 Bft) S 180 9,2 C 11,5 C
03.09.2012 06:01 11,5 C 86 % 1024,3 hPa 0,0 l/m 0,0 km/h (0 Bft) S 180 9,2 C 11,5 C
03.09.2012 06:06 11,4 C 86 % 1024,2 hPa 0,0 l/m 0,0 km/h (0 Bft) S 180 9,1 C 11,4 C
03.09.2012 06:11 11,3 C 86 % 1024,4 hPa 0,0 l/m 0,0 km/h (0 Bft) S 180 9,0 C 11,3 C
03.09.2012 06:16 11,3 C 86 % 1024,3 hPa 0,0 l/m 1,1 km/h (1 Bft) S 180 9,0 C 11,3 C
03.09.2012 06:21 11,3 C 86 % 1024,2 hPa 0,0 l/m 0,0 km/h (0 Bft) S 180 9,0 C 11,3 C
03.09.2012 06:26 11,3 C 86 % 1024,1 hPa 0,0 l/m 0,0 km/h (0 Bft) S 180 9,0 C 11,3 C
03.09.2012 06:31 11,3 C 87 % 1024,0 hPa 0,0 l/m 0,0 km/h (0 Bft) S 180 9,2 C 11,3 C
03.09.2012 06:36 11,3 C 87 % 1024,2 hPa 0,0 l/m 0,0 km/h (0 Bft) S 180 9,2 C 11,3 C
03.09.2012 06:41 11,2 C 87 % 1024,3 hPa 0,0 l/m 0,0 km/h (0 Bft) S 180 9,1 C 11,2 C
03.09.2012 06:46 11,1 C 87 % 1024,4 hPa 0,0 l/m 0,0 km/h (0 Bft) S 180 9,0 C 11,1 C
03.09.2012 06:51 11,0 C 86 % 1024,4 hPa 0,0 l/m 0,0 km/h (0 Bft) S 180 8,7 C 11,0 C
03.09.2012 06:56 10,9 C 86 % 1024,5 hPa 0,0 l/m 0,0 km/h (0 Bft) S 180 8,7 C 10,9 C
03.09.2012 07:01 10,9 C 86 % 1024,7 hPa 0,0 l/m 0,0 km/h (0 Bft) S 180 8,7 C 10,9 C
03.09.2012 07:06 11,0 C 87 % 1024,6 hPa 0,0 l/m 0,0 km/h (0 Bft) S 180 8,9 C 11,0 C
03.09.2012 07:11 11,1 C 87 % 1024,6 hPa 0,0 l/m 0,0 km/h (0 Bft) S 180 9,0 C 11,1 C
03.09.2012 07:16 11,1 C 87 % 1024,7 hPa 0,0 l/m 0,0 km/h (0 Bft) S 180 9,0 C 11,1 C
03.09.2012 07:21 11,3 C 87 % 1024,8 hPa 0,0 l/m 0,0 km/h (0 Bft) S 180 9,2 C 11,3 C
03.09.2012 07:26 11,6 C 88 % 1024,8 hPa 0,0 l/m 0,0 km/h (0 Bft) S 180 9,7 C 11,6 C
03.09.2012 07:31 11,9 C 88 % 1025,0 hPa 0,0 l/m 0,0 km/h (0 Bft) S 180 10,0 C 11,9 C
03.09.2012 07:36 12,3 C 88 % 1024,8 hPa 0,0 l/m 1,1 km/h (1 Bft) W-NW 292 10,4 C 12,3 C
03.09.2012 07:41 12,5 C 87 % 1024,9 hPa 0,0 l/m 0,0 km/h (0 Bft) W-NW 292 10,4 C 12,5 C
03.09.2012 07:46 12,8 C 87 % 1024,8 hPa 0,0 l/m 0,0 km/h (0 Bft) W-NW 292 10,7 C 12,8 C
03.09.2012 07:51 13,1 C 87 % 1024,8 hPa 0,0 l/m 1,1 km/h (1 Bft) W 270 11,0 C 13,1 C
03.09.2012 07:56 13,3 C 86 % 1024,9 hPa 0,0 l/m 2,9 km/h (1 Bft) W 270 11,0 C 13,3 C
03.09.2012 08:01 13,5 C 85 % 1024,9 hPa 0,0 l/m 0,0 km/h (0 Bft) W 270 11,0 C 13,5 C
03.09.2012 08:06 13,8 C 85 % 1024,9 hPa 0,0 l/m 3,2 km/h (1 Bft) W 270 11,3 C 13,8 C
03.09.2012 08:11 14,1 C 84 % 1025,0 hPa 0,0 l/m 4,7 km/h (1 Bft) W 270 11,4 C 14,1 C
03.09.2012 08:16 14,3 C 84 % 1024,9 hPa 0,0 l/m 3,2 km/h (1 Bft) W 270 11,6 C 14,3 C
03.09.2012 08:21 14,6 C 83 % 1025,1 hPa 0,0 l/m 1,1 km/h (1 Bft) W 270 11,7 C 14,6 C
03.09.2012 08:26 14,8 C 83 % 1025,0 hPa 0,0 l/m 0,0 km/h (0 Bft) W 270 11,9 C 14,8 C
03.09.2012 08:31 14,9 C 83 % 1024,9 hPa 0,0 l/m 0,0 km/h (0 Bft) W 270 12,0 C 14,9 C
03.09.2012 08:36 15,3 C 82 % 1024,8 hPa 0,0 l/m 0,0 km/h (0 Bft) W 270 12,2 C 15,3 C
03.09.2012 08:41 15,6 C 80 % 1025,0 hPa 0,0 l/m 2,5 km/h (1 Bft) W 270 12,2 C 15,6 C
03.09.2012 08:46 15,9 C 80 % 1024,9 hPa 0,0 l/m 2,2 km/h (1 Bft) W 270 12,5 C 15,9 C
03.09.2012 08:51 16,2 C 79 % 1024,8 hPa 0,0 l/m 2,2 km/h (1 Bft) W 270 12,6 C 16,2 C
03.09.2012 08:56 16,4 C 78 % 1024,8 hPa 0,0 l/m 0,0 km/h (0 Bft) W 270 12,6 C 16,4 C
03.09.2012 09:01 16,8 C 77 % 1024,7 hPa 0,0 l/m 1,4 km/h (1 Bft) W 270 12,7 C 16,8 C
03.09.2012 09:06 17,2 C 76 % 1024,7 hPa 0,0 l/m 2,5 km/h (1 Bft) W-SW 247 12,9 C 17,2 C
03.09.2012 09:11 17,5 C 74 % 1024,6 hPa 0,0 l/m 0,0 km/h (0 Bft) W 270 12,8 C 17,5 C
03.09.2012 09:16 17,8 C 73 % 1024,7 hPa 0,0 l/m 2,9 km/h (1 Bft) W 270 12,9 C 17,8 C
03.09.2012 09:21 18,1 C 72 % 1024,6 hPa 0,0 l/m 1,8 km/h (1 Bft) W-SW 247 13,0 C 18,1 C
03.09.2012 09:26 18,3 C 72 % 1024,7 hPa 0,0 l/m 1,4 km/h (1 Bft) W-SW 247 13,2 C 18,3 C
03.09.2012 09:31 18,4 C 71 % 1024,7 hPa 0,0 l/m 0,0 km/h (0 Bft) W-SW 247 13,0 C 18,4 C
03.09.2012 09:36 18,6 C 71 % 1024,6 hPa 0,0 l/m 0,0 km/h (0 Bft) W 270 13,2 C 18,6 C
03.09.2012 09:41 18,6 C 71 % 1024,6 hPa 0,0 l/m 0,0 km/h (0 Bft) W-SW 247 13,2 C 18,6 C
03.09.2012 09:46 18,8 C 70 % 1024,6 hPa 0,0 l/m 1,8 km/h (1 Bft) W 270 13,2 C 18,8 C
03.09.2012 09:51 18,9 C 70 % 1024,7 hPa 0,0 l/m 4,3 km/h (1 Bft) SW 225 13,3 C 18,9 C
03.09.2012 09:56 19,1 C 69 % 1024,7 hPa 0,0 l/m 1,4 km/h (1 Bft) SW 225 13,3 C 19,1 C
03.09.2012 10:01 19,3 C 69 % 1024,8 hPa 0,0 l/m 0,0 km/h (0 Bft) S-SW 202 13,5 C 19,3 C
03.09.2012 10:06 19,4 C 68 % 1024,7 hPa 0,0 l/m 3,2 km/h (1 Bft) SW 225 13,3 C 19,4 C
03.09.2012 10:11 19,6 C 68 % 1024,8 hPa 0,0 l/m 3,6 km/h (1 Bft) W 270 13,5 C 19,6 C
03.09.2012 10:16 19,9 C 67 % 1024,8 hPa 0,0 l/m 0,0 km/h (0 Bft) N-NW 337 13,6 C 19,9 C
03.09.2012 10:21 20,1 C 66 % 1024,9 hPa 0,0 l/m 1,8 km/h (1 Bft) W-NW 292 13,5 C 20,1 C
03.09.2012 10:26 20,4 C 65 % 1024,8 hPa 0,0 l/m 2,5 km/h (1 Bft) W-SW 247 13,6 C 20,4 C
03.09.2012 10:31 20,6 C 64 % 1024,7 hPa 0,0 l/m 0,0 km/h (0 Bft) W 270 13,5 C 20,6 C
03.09.2012 10:36 20,8 C 64 % 1024,6 hPa 0,0 l/m 0,0 km/h (0 Bft) W-NW 292 13,7 C 20,8 C
03.09.2012 10:41 20,9 C 63 % 1024,7 hPa 0,0 l/m 3,6 km/h (1 Bft) NW 315 13,6 C 20,9 C
03.09.2012 10:46 20,9 C 62 % 1024,9 hPa 0,0 l/m 2,2 km/h (1 Bft) W-NW 292 13,3 C 20,9 C
03.09.2012 10:51 20,9 C 62 % 1024,8 hPa 0,0 l/m 0,0 km/h (0 Bft) W 270 13,3 C 20,9 C
03.09.2012 10:56 21,0 C 61 % 1024,7 hPa 0,0 l/m 3,2 km/h (1 Bft) W 270 13,2 C 21,0 C
03.09.2012 11:01 21,1 C 61 % 1024,9 hPa 0,0 l/m 3,6 km/h (1 Bft) N-NW 337 13,3 C 21,1 C
03.09.2012 11:06 21,1 C 60 % 1024,9 hPa 0,0 l/m 8,3 km/h (2 Bft) W-NW 292 13,0 C 21,1 C
03.09.2012 11:11 21,2 C 60 % 1025,0 hPa 0,0 l/m 0,0 km/h (0 Bft) W-NW 292 13,1 C 21,2 C
03.09.2012 11:16 21,2 C 60 % 1024,9 hPa 0,0 l/m 5,0 km/h (1 Bft) N-NW 337 13,1 C 21,2 C
03.09.2012 11:21 21,1 C 60 % 1024,8 hPa 0,0 l/m 3,2 km/h (1 Bft) W-NW 292 13,0 C 21,1 C
03.09.2012 11:26 20,9 C 60 % 1024,8 hPa 0,0 l/m 4,3 km/h (1 Bft) N-NW 337 12,8 C 20,9 C
03.09.2012 11:31 20,8 C 60 % 1024,9 hPa 0,0 l/m 4,0 km/h (1 Bft) NW 315 12,7 C 20,8 C
03.09.2012 11:36 20,9 C 60 % 1024,9 hPa 0,0 l/m 3,6 km/h (1 Bft) W-NW 292 12,8 C 20,9 C
03.09.2012 11:41 21,2 C 60 % 1025,0 hPa 0,0 l/m 9,0 km/h (2 Bft) NW 315 13,1 C 21,2 C
03.09.2012 11:46 21,6 C 59 % 1024,9 hPa 0,0 l/m 6,1 km/h (2 Bft) NW 315 13,2 C 21,6 C
03.09.2012 11:51 21,9 C 58 % 1024,9 hPa 0,0 l/m 7,2 km/h (2 Bft) N-NW 337 13,3 C 21,9 C
03.09.2012 11:56 21,9 C 56 % 1024,7 hPa 0,0 l/m 5,0 km/h (1 Bft) W-NW 292 12,7 C 21,9 C
03.09.2012 12:01 22,1 C 56 % 1024,7 hPa 0,0 l/m 2,5 km/h (1 Bft) N 360 12,9 C 22,1 C
03.09.2012 12:06 22,3 C 55 % 1024,7 hPa 0,0 l/m 2,5 km/h (1 Bft) W 270 12,8 C 22,3 C
03.09.2012 12:11 22,4 C 55 % 1024,6 hPa 0,0 l/m 12,2 km/h (2 Bft) W-SW 247 12,9 C 22,4 C
03.09.2012 12:16 22,6 C 55 % 1024,6 hPa 0,0 l/m 4,3 km/h (1 Bft) W 270 13,1 C 22,6 C
03.09.2012 12:21 22,6 C 55 % 1024,6 hPa 0,0 l/m 4,7 km/h (1 Bft) W-NW 292 13,1 C 22,6 C
03.09.2012 12:26 22,6 C 55 % 1024,6 hPa 0,0 l/m 1,1 km/h (1 Bft) W 270 13,1 C 22,6 C
03.09.2012 12:31 22,6 C 55 % 1024,4 hPa 0,0 l/m 9,7 km/h (2 Bft) W-SW 247 13,1 C 22,6 C
03.09.2012 12:36 22,7 C 55 % 1024,5 hPa 0,0 l/m 5,8 km/h (2 Bft) NW 315 13,2 C 22,7 C
03.09.2012 12:41 22,6 C 56 % 1024,5 hPa 0,0 l/m 8,3 km/h (2 Bft) W-NW 292 13,4 C 22,6 C
03.09.2012 12:46 22,6 C 55 % 1024,4 hPa 0,0 l/m 3,2 km/h (1 Bft) W-NW 292 13,1 C 22,6 C
03.09.2012 12:51 22,7 C 54 % 1024,5 hPa 0,0 l/m 10,8 km/h (2 Bft) NW 315 12,9 C 22,7 C
03.09.2012 12:56 22,5 C 54 % 1024,4 hPa 0,0 l/m 6,1 km/h (2 Bft) NW 315 12,7 C 22,5 C
03.09.2012 13:01 22,6 C 54 % 1024,4 hPa 0,0 l/m 2,5 km/h (1 Bft) W-NW 292 12,8 C 22,6 C
03.09.2012 13:06 22,6 C 54 % 1024,5 hPa 0,0 l/m 6,1 km/h (2 Bft) W-NW 292 12,8 C 22,6 C
03.09.2012 13:11 22,5 C 54 % 1024,4 hPa 0,0 l/m 2,5 km/h (1 Bft) NW 315 12,7 C 22,5 C
03.09.2012 13:16 22,4 C 55 % 1024,5 hPa 0,0 l/m 7,2 km/h (2 Bft) NW 315 12,9 C 22,4 C
03.09.2012 13:21 22,4 C 55 % 1024,5 hPa 0,0 l/m 0,0 km/h (0 Bft) NW 315 12,9 C 22,4 C
03.09.2012 13:26 22,3 C 55 % 1024,4 hPa 0,0 l/m 2,2 km/h (1 Bft) W-NW 292 12,8 C 22,3 C
03.09.2012 13:31 22,2 C 56 % 1024,4 hPa 0,0 l/m 5,0 km/h (1 Bft) NW 315 13,0 C 22,2 C
03.09.2012 13:36 21,9 C 56 % 1024,5 hPa 0,0 l/m 2,9 km/h (1 Bft) NW 315 12,7 C 21,9 C
03.09.2012 13:41 21,8 C 56 % 1024,5 hPa 0,0 l/m 2,2 km/h (1 Bft) W-NW 292 12,6 C 21,8 C
03.09.2012 13:46 21,8 C 57 % 1024,4 hPa 0,0 l/m 2,2 km/h (1 Bft) N-NW 337 12,9 C 21,8 C
03.09.2012 13:51 21,8 C 56 % 1024,4 hPa 0,0 l/m 4,0 km/h (1 Bft) N-NW 337 12,6 C 21,8 C
03.09.2012 13:56 21,7 C 57 % 1024,3 hPa 0,0 l/m 0,0 km/h (0 Bft) W-NW 292 12,8 C 21,7 C
03.09.2012 14:01 21,5 C 58 % 1024,4 hPa 0,0 l/m 4,7 km/h (1 Bft) W-NW 292 12,9 C 21,5 C
03.09.2012 14:06 21,4 C 58 % 1024,4 hPa 0,0 l/m 3,2 km/h (1 Bft) W-NW 292 12,8 C 21,4 C
03.09.2012 14:11 21,4 C 59 % 1024,3 hPa 0,0 l/m 4,3 km/h (1 Bft) W-NW 292 13,0 C 21,4 C
03.09.2012 14:16 21,3 C 58 % 1024,3 hPa 0,0 l/m 7,2 km/h (2 Bft) N-NW 337 12,7 C 21,3 C
03.09.2012 14:21 21,1 C 58 % 1024,2 hPa 0,0 l/m 6,1 km/h (2 Bft) NO 45 12,5 C 21,1 C
03.09.2012 14:26 21,0 C 59 % 1024,2 hPa 0,0 l/m 3,6 km/h (1 Bft) N-NW 337 12,7 C 21,0 C
03.09.2012 14:31 20,9 C 59 % 1024,3 hPa 0,0 l/m 5,0 km/h (1 Bft) N 360 12,6 C 20,9 C
03.09.2012 14:36 20,8 C 60 % 1024,4 hPa 0,0 l/m 4,0 km/h (1 Bft) NW 315 12,7 C 20,8 C
03.09.2012 14:41 20,6 C 61 % 1024,4 hPa 0,0 l/m 0,0 km/h (0 Bft) NW 315 12,8 C 20,6 C
03.09.2012 14:46 20,5 C 61 % 1024,3 hPa 0,0 l/m 2,5 km/h (1 Bft) NW 315 12,7 C 20,5 C
03.09.2012 14:51 20,5 C 61 % 1024,3 hPa 0,0 l/m 4,0 km/h (1 Bft) NO 45 12,7 C 20,5 C
03.09.2012 14:56 20,6 C 62 % 1024,3 hPa 0,0 l/m 5,0 km/h (1 Bft) N 360 13,1 C 20,6 C
03.09.2012 15:01 20,8 C 62 % 1024,3 hPa 0,0 l/m 1,8 km/h (1 Bft) N-NW 337 13,2 C 20,8 C
03.09.2012 15:06 20,9 C 61 % 1024,3 hPa 0,0 l/m 2,9 km/h (1 Bft) NO 45 13,1 C 20,9 C
03.09.2012 15:11 20,9 C 61 % 1024,2 hPa 0,0 l/m 0,0 km/h (0 Bft) N 360 13,1 C 20,9 C
03.09.2012 15:16 21,1 C 60 % 1024,1 hPa 0,0 l/m 0,0 km/h (0 Bft) W-NW 292 13,0 C 21,1 C
03.09.2012 15:21 21,1 C 61 % 1024,3 hPa 0,0 l/m 4,7 km/h (1 Bft) NW 315 13,3 C 21,1 C
03.09.2012 15:26 21,2 C 61 % 1024,1 hPa 0,0 l/m 0,0 km/h (0 Bft) W-NW 292 13,4 C 21,2 C
03.09.2012 15:31 21,3 C 60 % 1024,1 hPa 0,0 l/m 11,2 km/h (2 Bft) N 360 13,2 C 21,3 C
03.09.2012 15:36 21,4 C 59 % 1024,1 hPa 0,0 l/m 3,2 km/h (1 Bft) N 360 13,0 C 21,4 C
03.09.2012 15:41 21,8 C 59 % 1024,0 hPa 0,0 l/m 6,1 km/h (2 Bft) NO 45 13,4 C 21,8 C
03.09.2012 15:46 21,9 C 58 % 1024,0 hPa 0,0 l/m 3,6 km/h (1 Bft) NW 315 13,3 C 21,9 C
03.09.2012 15:51 22,2 C 57 % 1024,0 hPa 0,0 l/m 1,8 km/h (1 Bft) NW 315 13,3 C 22,2 C
03.09.2012 15:56 22,4 C 56 % 1024,1 hPa 0,0 l/m 3,6 km/h (1 Bft) N 360 13,2 C 22,4 C
03.09.2012 16:01 22,2 C 56 % 1024,0 hPa 0,0 l/m 2,9 km/h (1 Bft) W 270 13,0 C 22,2 C
03.09.2012 16:06 22,1 C 57 % 1023,9 hPa 0,0 l/m 0,0 km/h (0 Bft) W-SW 247 13,2 C 22,1 C
03.09.2012 16:11 21,9 C 57 % 1023,9 hPa 0,0 l/m 2,9 km/h (1 Bft) N-NO 22 13,0 C 21,9 C
03.09.2012 16:16 21,7 C 57 % 1023,9 hPa 0,0 l/m 0,0 km/h (0 Bft) N-NW 337 12,8 C 21,7 C
03.09.2012 16:21 21,4 C 58 % 1024,1 hPa 0,0 l/m 2,5 km/h (1 Bft) O-NO 67 12,8 C 21,4 C
03.09.2012 16:26 21,3 C 59 % 1024,0 hPa 0,0 l/m 5,8 km/h (2 Bft) N-NO 22 13,0 C 21,3 C
03.09.2012 16:31 21,2 C 60 % 1024,0 hPa 0,0 l/m 2,2 km/h (1 Bft) N 360 13,1 C 21,2 C
03.09.2012 16:36 21,2 C 60 % 1023,9 hPa 0,0 l/m 1,4 km/h (1 Bft) NO 45 13,1 C 21,2 C
03.09.2012 16:36 21,2 C 60 % 1023,9 hPa 0,0 l/m 1,4 km/h (1 Bft) NO 45 13,1 C 21,2 C
03.09.2012 16:41 21,3 C 61 % 1023,7 hPa 0,0 l/m 0,0 km/h (0 Bft) NO 45 13,5 C 21,3 C
03.09.2012 16:41 21,3 C 61 % 1023,7 hPa 0,0 l/m 0,0 km/h (0 Bft) NO 45 13,5 C 21,3 C
03.09.2012 16:46 21,3 C 60 % 1023,8 hPa 0,0 l/m 2,9 km/h (1 Bft) NO 45 13,2 C 21,3 C
03.09.2012 16:46 21,3 C 60 % 1023,8 hPa 0,0 l/m 2,9 km/h (1 Bft) NO 45 13,2 C 21,3 C
03.09.2012 16:51 21,3 C 60 % 1023,7 hPa 0,0 l/m 5,0 km/h (1 Bft) N 360 13,2 C 21,3 C
03.09.2012 16:51 21,3 C 60 % 1023,7 hPa 0,0 l/m 5,0 km/h (1 Bft) N 360 13,2 C 21,3 C
03.09.2012 16:56 21,3 C 60 % 1023,7 hPa 0,0 l/m 2,5 km/h (1 Bft) N-NO 22 13,2 C 21,3 C
03.09.2012 16:56 21,3 C 60 % 1023,7 hPa 0,0 l/m 2,5 km/h (1 Bft) N-NO 22 13,2 C 21,3 C
03.09.2012 17:01 21,3 C 60 % 1023,8 hPa 0,0 l/m 5,8 km/h (2 Bft) N-NW 337 13,2 C 21,3 C
03.09.2012 17:01 21,3 C 60 % 1023,8 hPa 0,0 l/m 5,8 km/h (2 Bft) N-NW 337 13,2 C 21,3 C
03.09.2012 17:06 21,3 C 60 % 1023,6 hPa 0,0 l/m 0,0 km/h (0 Bft) N-NW 337 13,2 C 21,3 C
03.09.2012 17:06 21,3 C 60 % 1023,6 hPa 0,0 l/m 0,0 km/h (0 Bft) N-NW 337 13,2 C 21,3 C
03.09.2012 17:11 21,3 C 60 % 1023,7 hPa 0,0 l/m 1,4 km/h (1 Bft) NW 315 13,2 C 21,3 C
03.09.2012 17:11 21,3 C 60 % 1023,7 hPa 0,0 l/m 1,4 km/h (1 Bft) NW 315 13,2 C 21,3 C
03.09.2012 17:16 21,3 C 60 % 1023,9 hPa 0,0 l/m 0,0 km/h (0 Bft) NW 315 13,2 C 21,3 C
03.09.2012 17:16 21,3 C 60 % 1023,9 hPa 0,0 l/m 0,0 km/h (0 Bft) NW 315 13,2 C 21,3 C
03.09.2012 17:21 21,3 C 60 % 1023,8 hPa 0,0 l/m 2,5 km/h (1 Bft) N 360 13,2 C 21,3 C
03.09.2012 17:21 21,3 C 60 % 1023,8 hPa 0,0 l/m 2,5 km/h (1 Bft) N 360 13,2 C 21,3 C
03.09.2012 17:26 21,4 C 61 % 1023,8 hPa 0,0 l/m 1,1 km/h (1 Bft) N-NW 337 13,6 C 21,4 C
03.09.2012 17:26 21,4 C 61 % 1023,8 hPa 0,0 l/m 1,1 km/h (1 Bft) N-NW 337 13,6 C 21,4 C
03.09.2012 17:31 21,4 C 61 % 1023,8 hPa 0,0 l/m 3,2 km/h (1 Bft) N 360 13,6 C 21,4 C
03.09.2012 17:31 21,4 C 61 % 1023,8 hPa 0,0 l/m 3,2 km/h (1 Bft) N 360 13,6 C 21,4 C
03.09.2012 17:36 21,5 C 60 % 1023,6 hPa 0,0 l/m 2,2 km/h (1 Bft) NO 45 13,4 C 21,5 C
03.09.2012 17:36 21,5 C 60 % 1023,6 hPa 0,0 l/m 2,2 km/h (1 Bft) NO 45 13,4 C 21,5 C
03.09.2012 17:41 21,4 C 60 % 1023,6 hPa 0,0 l/m 2,2 km/h (1 Bft) N-NO 22 13,3 C 21,4 C
03.09.2012 17:41 21,4 C 60 % 1023,6 hPa 0,0 l/m 2,2 km/h (1 Bft) N-NO 22 13,3 C 21,4 C
03.09.2012 17:46 21,3 C 61 % 1023,6 hPa 0,0 l/m 8,3 km/h (2 Bft) N 360 13,5 C 21,3 C
03.09.2012 17:46 21,3 C 61 % 1023,6 hPa 0,0 l/m 8,3 km/h (2 Bft) N 360 13,5 C 21,3 C
03.09.2012 17:51 21,1 C 60 % 1023,7 hPa 0,0 l/m 3,2 km/h (1 Bft) N 360 13,0 C 21,1 C
03.09.2012 17:51 21,1 C 60 % 1023,7 hPa 0,0 l/m 3,2 km/h (1 Bft) N 360 13,0 C 21,1 C
03.09.2012 17:56 20,9 C 61 % 1023,6 hPa 0,0 l/m 2,5 km/h (1 Bft) N-NO 22 13,1 C 20,9 C
03.09.2012 17:56 20,9 C 61 % 1023,6 hPa 0,0 l/m 2,5 km/h (1 Bft) N-NO 22 13,1 C 20,9 C
03.09.2012 18:01 20,8 C 61 % 1023,6 hPa 0,0 l/m 2,9 km/h (1 Bft) N-NO 22 13,0 C 20,8 C
03.09.2012 18:01 20,8 C 61 % 1023,6 hPa 0,0 l/m 2,9 km/h (1 Bft) N-NO 22 13,0 C 20,8 C
03.09.2012 18:06 20,7 C 61 % 1023,6 hPa 0,0 l/m 4,0 km/h (1 Bft) N 360 12,9 C 20,7 C
03.09.2012 18:06 20,7 C 61 % 1023,6 hPa 0,0 l/m 4,0 km/h (1 Bft) N 360 12,9 C 20,7 C
03.09.2012 18:11 20,5 C 62 % 1023,5 hPa 0,0 l/m 6,1 km/h (2 Bft) N-NO 22 13,0 C 20,5 C
03.09.2012 18:11 20,5 C 62 % 1023,5 hPa 0,0 l/m 6,1 km/h (2 Bft) N-NO 22 13,0 C 20,5 C
03.09.2012 18:16 20,4 C 63 % 1023,6 hPa 0,0 l/m 6,1 km/h (2 Bft) N-NO 22 13,1 C 20,4 C
03.09.2012 18:16 20,4 C 63 % 1023,6 hPa 0,0 l/m 6,1 km/h (2 Bft) N-NO 22 13,1 C 20,4 C
03.09.2012 18:21 20,4 C 63 % 1023,4 hPa 0,0 l/m 4,0 km/h (1 Bft) N-NO 22 13,1 C 20,4 C
03.09.2012 18:21 20,4 C 63 % 1023,4 hPa 0,0 l/m 4,0 km/h (1 Bft) N-NO 22 13,1 C 20,4 C
03.09.2012 18:26 20,3 C 64 % 1023,5 hPa 0,0 l/m 4,0 km/h (1 Bft) N-NO 22 13,3 C 20,3 C
03.09.2012 18:26 20,3 C 64 % 1023,5 hPa 0,0 l/m 4,0 km/h (1 Bft) N-NO 22 13,3 C 20,3 C
03.09.2012 18:31 20,2 C 64 % 1023,4 hPa 0,0 l/m 0,0 km/h (0 Bft) N 360 13,2 C 20,2 C
03.09.2012 18:31 20,2 C 64 % 1023,4 hPa 0,0 l/m 0,0 km/h (0 Bft) N 360 13,2 C 20,2 C
03.09.2012 18:36 20,2 C 64 % 1023,4 hPa 0,0 l/m 1,4 km/h (1 Bft) N 360 13,2 C 20,2 C
03.09.2012 18:36 20,2 C 64 % 1023,4 hPa 0,0 l/m 1,4 km/h (1 Bft) N 360 13,2 C 20,2 C
03.09.2012 18:41 20,2 C 64 % 1023,4 hPa 0,0 l/m 0,0 km/h (0 Bft) N-NO 22 13,2 C 20,2 C
03.09.2012 18:41 20,2 C 64 % 1023,4 hPa 0,0 l/m 0,0 km/h (0 Bft) N-NO 22 13,2 C 20,2 C
03.09.2012 18:46 20,2 C 64 % 1023,4 hPa 0,0 l/m 0,0 km/h (0 Bft) N 360 13,2 C 20,2 C
03.09.2012 18:46 20,2 C 64 % 1023,4 hPa 0,0 l/m 0,0 km/h (0 Bft) N 360 13,2 C 20,2 C
03.09.2012 18:51 20,1 C 64 % 1023,4 hPa 0,0 l/m 0,0 km/h (0 Bft) N-NO 22 13,1 C 20,1 C
03.09.2012 18:51 20,1 C 64 % 1023,4 hPa 0,0 l/m 0,0 km/h (0 Bft) N-NO 22 13,1 C 20,1 C
03.09.2012 18:56 20,0 C 64 % 1023,4 hPa 0,0 l/m 1,4 km/h (1 Bft) N-NO 22 13,0 C 20,0 C
03.09.2012 18:56 20,0 C 64 % 1023,4 hPa 0,0 l/m 1,4 km/h (1 Bft) N-NO 22 13,0 C 20,0 C
03.09.2012 19:01 19,9 C 65 % 1023,4 hPa 0,0 l/m 0,0 km/h (0 Bft) O-NO 67 13,1 C 19,9 C
03.09.2012 19:01 19,9 C 65 % 1023,4 hPa 0,0 l/m 0,0 km/h (0 Bft) O-NO 67 13,1 C 19,9 C
03.09.2012 19:06 19,9 C 65 % 1023,4 hPa 0,0 l/m 1,4 km/h (1 Bft) O-NO 67 13,1 C 19,9 C
03.09.2012 19:06 19,9 C 65 % 1023,4 hPa 0,0 l/m 1,4 km/h (1 Bft) O-NO 67 13,1 C 19,9 C
03.09.2012 19:11 20,1 C 65 % 1023,3 hPa 0,0 l/m 1,1 km/h (1 Bft) O-NO 67 13,3 C 20,1 C
03.09.2012 19:11 20,1 C 65 % 1023,3 hPa 0,0 l/m 1,1 km/h (1 Bft) O-NO 67 13,3 C 20,1 C
03.09.2012 19:16 20,3 C 64 % 1023,6 hPa 0,0 l/m 0,0 km/h (0 Bft) NO 45 13,3 C 20,3 C
03.09.2012 19:16 20,3 C 64 % 1023,6 hPa 0,0 l/m 0,0 km/h (0 Bft) NO 45 13,3 C 20,3 C
03.09.2012 19:21 20,3 C 64 % 1023,6 hPa 0,0 l/m 2,2 km/h (1 Bft) N-NO 22 13,3 C 20,3 C
03.09.2012 19:21 20,3 C 64 % 1023,6 hPa 0,0 l/m 2,2 km/h (1 Bft) N-NO 22 13,3 C 20,3 C
03.09.2012 19:26 20,1 C 65 % 1023,6 hPa 0,0 l/m 0,0 km/h (0 Bft) N-NO 22 13,3 C 20,1 C
03.09.2012 19:26 20,1 C 65 % 1023,6 hPa 0,0 l/m 0,0 km/h (0 Bft) N-NO 22 13,3 C 20,1 C
03.09.2012 19:31 19,9 C 65 % 1023,5 hPa 0,0 l/m 2,5 km/h (1 Bft) N-NO 22 13,1 C 19,9 C
03.09.2012 19:31 19,9 C 65 % 1023,5 hPa 0,0 l/m 2,5 km/h (1 Bft) N-NO 22 13,1 C 19,9 C
03.09.2012 19:36 19,6 C 66 % 1023,6 hPa 0,0 l/m 1,4 km/h (1 Bft) N-NO 22 13,1 C 19,6 C
03.09.2012 19:36 19,6 C 66 % 1023,6 hPa 0,0 l/m 1,4 km/h (1 Bft) N-NO 22 13,1 C 19,6 C
03.09.2012 19:41 19,4 C 67 % 1023,7 hPa 0,0 l/m 2,5 km/h (1 Bft) N-NO 22 13,1 C 19,4 C
03.09.2012 19:41 19,4 C 67 % 1023,7 hPa 0,0 l/m 2,5 km/h (1 Bft) N-NO 22 13,1 C 19,4 C
03.09.2012 19:46 19,3 C 68 % 1023,6 hPa 0,0 l/m 0,0 km/h (0 Bft) N-NO 22 13,2 C 19,3 C
03.09.2012 19:46 19,3 C 68 % 1023,6 hPa 0,0 l/m 0,0 km/h (0 Bft) N-NO 22 13,2 C 19,3 C
03.09.2012 19:51 19,1 C 68 % 1023,8 hPa 0,0 l/m 2,2 km/h (1 Bft) N-NO 22 13,1 C 19,1 C
03.09.2012 19:51 19,1 C 68 % 1023,8 hPa 0,0 l/m 2,2 km/h (1 Bft) N-NO 22 13,1 C 19,1 C
03.09.2012 19:56 18,9 C 68 % 1023,7 hPa 0,0 l/m 0,0 km/h (0 Bft) N-NO 22 12,9 C 18,9 C
03.09.2012 19:56 18,9 C 68 % 1023,7 hPa 0,0 l/m 0,0 km/h (0 Bft) N-NO 22 12,9 C 18,9 C
03.09.2012 20:01 18,6 C 68 % 1023,7 hPa 0,0 l/m 0,0 km/h (0 Bft) N-NO 22 12,6 C 18,6 C
03.09.2012 20:01 18,6 C 68 % 1023,7 hPa 0,0 l/m 0,0 km/h (0 Bft) N-NO 22 12,6 C 18,6 C
03.09.2012 20:06 18,5 C 69 % 1023,7 hPa 0,0 l/m 0,0 km/h (0 Bft) N-NO 22 12,7 C 18,5 C
03.09.2012 20:06 18,5 C 69 % 1023,7 hPa 0,0 l/m 0,0 km/h (0 Bft) N-NO 22 12,7 C 18,5 C
03.09.2012 20:11 18,3 C 70 % 1023,8 hPa 0,0 l/m 0,0 km/h (0 Bft) N-NO 22 12,7 C 18,3 C
03.09.2012 20:11 18,3 C 70 % 1023,8 hPa 0,0 l/m 0,0 km/h (0 Bft) N-NO 22 12,7 C 18,3 C
03.09.2012 20:16 18,1 C 70 % 1023,9 hPa 0,0 l/m 0,0 km/h (0 Bft) N-NO 22 12,5 C 18,1 C
03.09.2012 20:16 18,1 C 70 % 1023,9 hPa 0,0 l/m 0,0 km/h (0 Bft) N-NO 22 12,5 C 18,1 C
03.09.2012 20:21 17,9 C 70 % 1023,7 hPa 0,0 l/m 0,0 km/h (0 Bft) N-NO 22 12,3 C 17,9 C
03.09.2012 20:21 17,9 C 70 % 1023,7 hPa 0,0 l/m 0,0 km/h (0 Bft) N-NO 22 12,3 C 17,9 C
03.09.2012 20:26 17,8 C 70 % 1023,7 hPa 0,0 l/m 0,0 km/h (0 Bft) N-NO 22 12,3 C 17,8 C
03.09.2012 20:26 17,8 C 70 % 1023,7 hPa 0,0 l/m 0,0 km/h (0 Bft) N-NO 22 12,3 C 17,8 C
03.09.2012 20:31 17,6 C 71 % 1023,6 hPa 0,0 l/m 0,0 km/h (0 Bft) N-NO 22 12,3 C 17,6 C
03.09.2012 20:31 17,6 C 71 % 1023,6 hPa 0,0 l/m 0,0 km/h (0 Bft) N-NO 22 12,3 C 17,6 C
03.09.2012 20:36 17,4 C 71 % 1023,8 hPa 0,0 l/m 0,0 km/h (0 Bft) N-NO 22 12,1 C 17,4 C
03.09.2012 20:36 17,4 C 71 % 1023,8 hPa 0,0 l/m 0,0 km/h (0 Bft) N-NO 22 12,1 C 17,4 C
03.09.2012 20:41 17,2 C 72 % 1023,6 hPa 0,0 l/m 0,0 km/h (0 Bft) N-NO 22 12,1 C 17,2 C
03.09.2012 20:41 17,2 C 72 % 1023,6 hPa 0,0 l/m 0,0 km/h (0 Bft) N-NO 22 12,1 C 17,2 C
03.09.2012 20:46 17,0 C 72 % 1023,9 hPa 0,0 l/m 0,0 km/h (0 Bft) N-NO 22 11,9 C 17,0 C
03.09.2012 20:46 17,0 C 72 % 1023,9 hPa 0,0 l/m 0,0 km/h (0 Bft) N-NO 22 11,9 C 17,0 C
03.09.2012 20:51 16,9 C 72 % 1024,0 hPa 0,0 l/m 0,0 km/h (0 Bft) N-NO 22 11,8 C 16,9 C
03.09.2012 20:51 16,9 C 72 % 1024,0 hPa 0,0 l/m 0,0 km/h (0 Bft) N-NO 22 11,8 C 16,9 C
03.09.2012 20:56 16,7 C 73 % 1023,9 hPa 0,0 l/m 0,0 km/h (0 Bft) N-NO 22 11,8 C 16,7 C
03.09.2012 20:56 16,7 C 73 % 1023,9 hPa 0,0 l/m 0,0 km/h (0 Bft) N-NO 22 11,8 C 16,7 C
03.09.2012 21:01 16,5 C 73 % 1024,0 hPa 0,0 l/m 0,0 km/h (0 Bft) N-NO 22 11,6 C 16,5 C
03.09.2012 21:01 16,5 C 73 % 1024,0 hPa 0,0 l/m 0,0 km/h (0 Bft) N-NO 22 11,6 C 16,5 C
03.09.2012 21:06 16,4 C 74 % 1024,0 hPa 0,0 l/m 0,0 km/h (0 Bft) N-NO 22 11,8 C 16,4 C
03.09.2012 21:06 16,4 C 74 % 1024,0 hPa 0,0 l/m 0,0 km/h (0 Bft) N-NO 22 11,8 C 16,4 C
03.09.2012 21:11 16,2 C 75 % 1024,1 hPa 0,0 l/m 0,0 km/h (0 Bft) N-NO 22 11,8 C 16,2 C
03.09.2012 21:11 16,2 C 75 % 1024,1 hPa 0,0 l/m 0,0 km/h (0 Bft) N-NO 22 11,8 C 16,2 C
03.09.2012 21:16 16,1 C 75 % 1024,1 hPa 0,0 l/m 0,0 km/h (0 Bft) N-NO 22 11,7 C 16,1 C
03.09.2012 21:16 16,1 C 75 % 1024,1 hPa 0,0 l/m 0,0 km/h (0 Bft) N-NO 22 11,7 C 16,1 C
03.09.2012 21:21 15,9 C 76 % 1024,0 hPa 0,0 l/m 0,0 km/h (0 Bft) N-NO 22 11,7 C 15,9 C
03.09.2012 21:21 15,9 C 76 % 1024,0 hPa 0,0 l/m 0,0 km/h (0 Bft) N-NO 22 11,7 C 15,9 C
03.09.2012 21:26 15,8 C 76 % 1023,9 hPa 0,0 l/m 0,0 km/h (0 Bft) N-NO 22 11,6 C 15,8 C
03.09.2012 21:26 15,8 C 76 % 1023,9 hPa 0,0 l/m 0,0 km/h (0 Bft) N-NO 22 11,6 C 15,8 C
03.09.2012 21:31 15,7 C 77 % 1024,0 hPa 0,0 l/m 0,0 km/h (0 Bft) N-NO 22 11,7 C 15,7 C
03.09.2012 21:31 15,7 C 77 % 1024,0 hPa 0,0 l/m 0,0 km/h (0 Bft) N-NO 22 11,7 C 15,7 C
03.09.2012 21:36 15,6 C 77 % 1023,9 hPa 0,0 l/m 0,0 km/h (0 Bft) N-NO 22 11,6 C 15,6 C
03.09.2012 21:36 15,6 C 77 % 1023,9 hPa 0,0 l/m 0,0 km/h (0 Bft) N-NO 22 11,6 C 15,6 C
03.09.2012 21:41 15,4 C 77 % 1024,0 hPa 0,0 l/m 0,0 km/h (0 Bft) N-NO 22 11,4 C 15,4 C
03.09.2012 21:41 15,4 C 77 % 1024,0 hPa 0,0 l/m 0,0 km/h (0 Bft) N-NO 22 11,4 C 15,4 C
03.09.2012 21:46 15,3 C 77 % 1024,0 hPa 0,0 l/m 0,0 km/h (0 Bft) N-NO 22 11,3 C 15,3 C
03.09.2012 21:46 15,3 C 77 % 1024,0 hPa 0,0 l/m 0,0 km/h (0 Bft) N-NO 22 11,3 C 15,3 C
03.09.2012 21:51 15,2 C 78 % 1024,1 hPa 0,0 l/m 0,0 km/h (0 Bft) N-NO 22 11,4 C 15,2 C
03.09.2012 21:51 15,2 C 78 % 1024,1 hPa 0,0 l/m 0,0 km/h (0 Bft) N-NO 22 11,4 C 15,2 C
03.09.2012 21:56 15,0 C 78 % 1024,0 hPa 0,0 l/m 0,0 km/h (0 Bft) N-NO 22 11,2 C 15,0 C
03.09.2012 21:56 15,0 C 78 % 1024,0 hPa 0,0 l/m 0,0 km/h (0 Bft) N-NO 22 11,2 C 15,0 C
03.09.2012 22:01 14,9 C 78 % 1023,9 hPa 0,0 l/m 0,0 km/h (0 Bft) N-NO 22 11,1 C 14,9 C
03.09.2012 22:01 14,9 C 78 % 1023,9 hPa 0,0 l/m 0,0 km/h (0 Bft) N-NO 22 11,1 C 14,9 C
03.09.2012 22:06 14,9 C 78 % 1024,0 hPa 0,0 l/m 0,0 km/h (0 Bft) N-NO 22 11,1 C 14,9 C
03.09.2012 22:06 14,9 C 78 % 1024,0 hPa 0,0 l/m 0,0 km/h (0 Bft) N-NO 22 11,1 C 14,9 C
03.09.2012 22:11 14,9 C 79 % 1024,0 hPa 0,0 l/m 0,0 km/h (0 Bft) N-NO 22 11,3 C 14,9 C
03.09.2012 22:11 14,9 C 79 % 1024,0 hPa 0,0 l/m 0,0 km/h (0 Bft) N-NO 22 11,3 C 14,9 C
03.09.2012 22:16 14,8 C 79 % 1024,0 hPa 0,0 l/m 0,0 km/h (0 Bft) N-NO 22 11,2 C 14,8 C
03.09.2012 22:16 14,8 C 79 % 1024,0 hPa 0,0 l/m 0,0 km/h (0 Bft) N-NO 22 11,2 C 14,8 C
03.09.2012 22:21 14,6 C 79 % 1023,9 hPa 0,0 l/m 0,0 km/h (0 Bft) N-NO 22 11,0 C 14,6 C
03.09.2012 22:21 14,6 C 79 % 1023,9 hPa 0,0 l/m 0,0 km/h (0 Bft) N-NO 22 11,0 C 14,6 C
03.09.2012 22:26 14,5 C 79 % 1024,0 hPa 0,0 l/m 0,0 km/h (0 Bft) N-NO 22 10,9 C 14,5 C
03.09.2012 22:26 14,5 C 79 % 1024,0 hPa 0,0 l/m 0,0 km/h (0 Bft) N-NO 22 10,9 C 14,5 C
03.09.2012 22:31 14,4 C 79 % 1023,9 hPa 0,0 l/m 0,0 km/h (0 Bft) N-NO 22 10,8 C 14,4 C
03.09.2012 22:31 14,4 C 79 % 1023,9 hPa 0,0 l/m 0,0 km/h (0 Bft) N-NO 22 10,8 C 14,4 C
03.09.2012 22:36 14,4 C 80 % 1024,0 hPa 0,0 l/m 0,0 km/h (0 Bft) N-NO 22 11,0 C 14,4 C
03.09.2012 22:36 14,4 C 80 % 1024,0 hPa 0,0 l/m 0,0 km/h (0 Bft) N-NO 22 11,0 C 14,4 C
03.09.2012 22:41 14,4 C 81 % 1024,0 hPa 0,0 l/m 0,0 km/h (0 Bft) N-NO 22 11,2 C 14,4 C
03.09.2012 22:41 14,4 C 81 % 1024,0 hPa 0,0 l/m 0,0 km/h (0 Bft) N-NO 22 11,2 C 14,4 C
03.09.2012 22:46 14,4 C 81 % 1024,0 hPa 0,0 l/m 0,0 km/h (0 Bft) N-NO 22 11,2 C 14,4 C
03.09.2012 22:46 14,4 C 81 % 1024,0 hPa 0,0 l/m 0,0 km/h (0 Bft) N-NO 22 11,2 C 14,4 C
03.09.2012 22:51 14,3 C 81 % 1024,1 hPa 0,0 l/m 0,0 km/h (0 Bft) N-NO 22 11,1 C 14,3 C
03.09.2012 22:51 14,3 C 81 % 1024,1 hPa 0,0 l/m 0,0 km/h (0 Bft) N-NO 22 11,1 C 14,3 C
03.09.2012 22:56 14,2 C 81 % 1024,2 hPa 0,0 l/m 0,0 km/h (0 Bft) N-NO 22 11,0 C 14,2 C
03.09.2012 22:56 14,2 C 81 % 1024,2 hPa 0,0 l/m 0,0 km/h (0 Bft) N-NO 22 11,0 C 14,2 C
03.09.2012 23:01 14,0 C 80 % 1024,3 hPa 0,0 l/m 0,0 km/h (0 Bft) N-NO 22 10,6 C 14,0 C
03.09.2012 23:01 14,0 C 80 % 1024,3 hPa 0,0 l/m 0,0 km/h (0 Bft) N-NO 22 10,6 C 14,0 C
03.09.2012 23:06 13,9 C 81 % 1024,0 hPa 0,0 l/m 0,0 km/h (0 Bft) N-NO 22 10,7 C 13,9 C
03.09.2012 23:06 13,9 C 81 % 1024,0 hPa 0,0 l/m 0,0 km/h (0 Bft) N-NO 22 10,7 C 13,9 C
03.09.2012 23:11 13,9 C 81 % 1024,0 hPa 0,0 l/m 0,0 km/h (0 Bft) N-NO 22 10,7 C 13,9 C
03.09.2012 23:11 13,9 C 81 % 1024,0 hPa 0,0 l/m 0,0 km/h (0 Bft) N-NO 22 10,7 C 13,9 C
03.09.2012 23:16 13,8 C 81 % 1024,0 hPa 0,0 l/m 0,0 km/h (0 Bft) N-NO 22 10,6 C 13,8 C
03.09.2012 23:16 13,8 C 81 % 1024,0 hPa 0,0 l/m 0,0 km/h (0 Bft) N-NO 22 10,6 C 13,8 C
03.09.2012 23:21 13,6 C 82 % 1024,0 hPa 0,0 l/m 1,1 km/h (1 Bft) N-NO 22 10,6 C 13,6 C
03.09.2012 23:21 13,6 C 82 % 1024,0 hPa 0,0 l/m 1,1 km/h (1 Bft) N-NO 22 10,6 C 13,6 C
03.09.2012 23:26 13,7 C 83 % 1024,0 hPa 0,0 l/m 1,8 km/h (1 Bft) O-NO 67 10,9 C 13,7 C
03.09.2012 23:26 13,7 C 83 % 1024,0 hPa 0,0 l/m 1,8 km/h (1 Bft) O-NO 67 10,9 C 13,7 C
03.09.2012 23:31 13,8 C 84 % 1024,1 hPa 0,0 l/m 0,0 km/h (0 Bft) O-NO 67 11,1 C 13,8 C
03.09.2012 23:31 13,8 C 84 % 1024,1 hPa 0,0 l/m 0,0 km/h (0 Bft) O-NO 67 11,1 C 13,8 C
03.09.2012 23:36 13,7 C 84 % 1024,1 hPa 0,0 l/m 0,0 km/h (0 Bft) O-NO 67 11,0 C 13,7 C
03.09.2012 23:36 13,7 C 84 % 1024,1 hPa 0,0 l/m 0,0 km/h (0 Bft) O-NO 67 11,0 C 13,7 C
03.09.2012 23:41 13,6 C 84 % 1024,1 hPa 0,0 l/m 0,0 km/h (0 Bft) O-NO 67 10,9 C 13,6 C
03.09.2012 23:41 13,6 C 84 % 1024,1 hPa 0,0 l/m 0,0 km/h (0 Bft) O-NO 67 10,9 C 13,6 C
03.09.2012 23:46 13,5 C 84 % 1024,2 hPa 0,0 l/m 0,0 km/h (0 Bft) O-NO 67 10,8 C 13,5 C
03.09.2012 23:46 13,5 C 84 % 1024,2 hPa 0,0 l/m 0,0 km/h (0 Bft) O-NO 67 10,8 C 13,5 C
03.09.2012 23:51 13,4 C 83 % 1024,1 hPa 0,0 l/m 0,0 km/h (0 Bft) O-NO 67 10,6 C 13,4 C
03.09.2012 23:51 13,4 C 83 % 1024,1 hPa 0,0 l/m 0,0 km/h (0 Bft) O-NO 67 10,6 C 13,4 C
03.09.2012 23:56 13,3 C 83 % 1024,1 hPa 0,0 l/m 0,0 km/h (0 Bft) O-NO 67 10,5 C 13,3 C
03.09.2012 23:56 13,3 C 83 % 1024,1 hPa 0,0 l/m 0,0 km/h (0 Bft) O-NO 67 10,5 C 13,3 C
_ Min-Zeit 06:56 12:51 19:11 - 00:01 - - 06:56 06:56
Minimum _ 10,9 C 54 % 1023,3 hPa - 0,0 km/h (0 Bft) - - 8,7 C 10,9 C
_ Max-Zeit 12:36 07:26 08:21 00:01 12:11 - - 10:36 12:36
Maximum _ 22,7 C 88 % 1025,1 hPa 0,0 l/m 12,2 km/h
W-SW (2 Bft)
- - 13,7 C 22,7 C
Durchschnitt _ 17,2 C 72 % 1024,2 hPa #0,0 l/m 1,4 km/h (1 Bft) N-NO - 11,8 C 17,2 C
(c) by David Heller